createdAt,value
2017-07-22T00:03:15.599Z,90.12
2017-07-22T00:08:12.003Z,90.36
2017-07-22T00:13:07.595Z,90.26
2017-07-22T00:18:03.697Z,90.07
2017-07-22T00:23:00.539Z,91.32
2017-07-22T00:27:56.058Z,90.94
2017-07-22T00:32:53.488Z,90.84
2017-07-22T00:37:49.472Z,90.45
2017-07-22T00:42:45.463Z,90.55
2017-07-22T00:47:41.119Z,91.42
2017-07-22T00:52:36.990Z,91.42
2017-07-22T00:57:33.419Z,91.61
2017-07-22T01:02:30.056Z,91.80
2017-07-22T01:07:25.544Z,91.99
2017-07-22T01:12:21.651Z,92.29
2017-07-22T01:17:18.394Z,92.96
2017-07-22T01:22:14.121Z,92.67
2017-07-22T01:27:10.933Z,92.47
2017-07-22T01:32:06.991Z,92.86
2017-07-22T01:37:02.701Z,93.44
2017-07-22T01:41:58.860Z,92.67
2017-07-22T01:46:54.695Z,93.24
2017-07-22T01:51:51.848Z,93.15
2017-07-22T01:56:47.168Z,93.91
2017-07-22T02:01:43.110Z,93.73
2017-07-22T02:06:39.933Z,93.53
2017-07-22T02:11:36.781Z,93.05
2017-07-22T02:16:33.603Z,93.73
2017-07-22T02:21:29.129Z,93.53
2017-07-22T02:26:25.055Z,93.63
2017-07-22T02:31:23.210Z,93.19
2017-07-22T02:36:19.628Z,93.19
2017-07-22T02:41:15.369Z,92.43
2017-07-22T02:46:13.599Z,93.29
2017-07-22T02:51:10.436Z,92.85
2017-07-22T02:56:07.277Z,94.49
2017-07-22T03:01:04.155Z,99.99
2017-07-22T03:05:59.462Z,99.99
2017-07-22T03:10:58.055Z,99.99
2017-07-22T03:15:53.966Z,99.99
2017-07-22T03:20:49.587Z,99.99
2017-07-22T03:25:45.725Z,99.99
2017-07-22T03:30:41.412Z,99.99
2017-07-22T03:35:37.632Z,99.99
2017-07-22T03:40:34.594Z,99.99
2017-07-22T03:45:30.769Z,99.99
2017-07-22T03:50:26.273Z,99.99
2017-07-22T03:55:22.081Z,99.99
2017-07-22T04:00:18.072Z,99.99
2017-07-22T04:05:14.860Z,99.99
2017-07-22T04:10:10.445Z,99.99
2017-07-22T04:20:10.399Z,99.99
2017-07-22T04:25:05.612Z,99.99
2017-07-22T04:30:03.700Z,99.99
2017-07-22T04:34:59.162Z,99.99
2017-07-22T04:39:56.383Z,99.99
2017-07-22T04:44:52.964Z,99.99
2017-07-22T04:49:48.945Z,99.99
2017-07-22T04:54:48.003Z,99.99
2017-07-22T04:59:43.284Z,99.99
2017-07-22T05:04:40.938Z,99.99
2017-07-22T05:09:36.170Z,99.99
2017-07-22T05:14:33.189Z,99.99
2017-07-22T05:19:28.993Z,99.99
2017-07-22T05:24:24.979Z,99.99
2017-07-22T05:29:21.175Z,99.99
2017-07-22T05:34:17.153Z,99.99
2017-07-22T05:39:13.096Z,99.99
2017-07-22T05:44:09.998Z,99.99
2017-07-22T05:49:05.679Z,99.99
2017-07-22T05:54:01.644Z,99.99
2017-07-22T05:58:57.618Z,99.99
2017-07-22T06:03:53.778Z,99.99
2017-07-22T06:08:50.019Z,99.99
2017-07-22T06:13:47.568Z,99.99
2017-07-22T06:18:45.060Z,99.99
2017-07-22T06:28:42.637Z,99.99
2017-07-22T06:33:38.464Z,99.99
2017-07-22T06:38:35.964Z,99.99
2017-07-22T06:43:31.742Z,99.99
2017-07-22T06:48:28.603Z,99.99
2017-07-22T06:53:25.335Z,99.99
2017-07-22T06:58:20.991Z,99.99
2017-07-22T07:03:16.868Z,99.99
2017-07-22T07:08:12.698Z,99.99
2017-07-22T07:13:08.508Z,99.99
2017-07-22T07:18:05.725Z,99.99
2017-07-22T07:23:02.856Z,99.99
2017-07-22T07:27:58.596Z,99.99
2017-07-22T07:32:54.703Z,99.99
2017-07-22T07:37:51.780Z,99.99
2017-07-22T07:42:47.390Z,99.99
2017-07-22T07:47:44.030Z,99.99
2017-07-22T07:52:39.878Z,99.99
2017-07-22T07:57:37.391Z,99.99
2017-07-22T08:02:36.560Z,95.11
2017-07-22T08:07:35.148Z,91.63
2017-07-22T08:12:32.954Z,89.98
2017-07-22T08:17:30.181Z,90.37
2017-07-22T08:22:27.284Z,90.61
2017-07-22T08:27:25.148Z,89.69
2017-07-22T08:32:21.088Z,89.29
2017-07-22T08:37:19.031Z,86.58
2017-07-22T08:42:15.667Z,86.09
2017-07-22T08:47:13.809Z,87.31
2017-07-22T08:52:09.429Z,85.80
2017-07-22T08:57:06.196Z,86.24
2017-07-22T09:02:01.152Z,87.12
2017-07-22T09:06:59.384Z,85.41
2017-07-22T09:11:57.098Z,85.85
2017-07-22T09:16:53.387Z,84.63
2017-07-22T09:21:49.281Z,84.20
2017-07-22T09:26:46.019Z,85.13
2017-07-22T09:31:42.965Z,83.72
2017-07-22T09:36:39.551Z,82.92
2017-07-22T09:41:36.071Z,83.27
2017-07-22T09:46:31.597Z,83.13
2017-07-22T09:51:29.601Z,82.78
2017-07-22T09:56:25.778Z,82.44
2017-07-22T10:01:25.243Z,81.27
2017-07-22T10:06:20.691Z,81.12
2017-07-22T10:11:17.193Z,80.50
2017-07-22T10:16:13.629Z,77.28
2017-07-22T10:21:09.366Z,78.64
2017-07-22T10:26:04.679Z,80.93
2017-07-22T10:31:02.346Z,73.72
2017-07-22T10:35:59.824Z,76.73
2017-07-22T10:40:56.235Z,73.20
2017-07-22T10:45:50.120Z,75.45
2017-07-22T10:50:45.403Z,76.72
2017-07-22T10:55:44.665Z,72.71
2017-07-22T11:00:40.420Z,79.24
2017-07-22T11:05:34.839Z,75.59
2017-07-22T11:10:34.548Z,71.06
2017-07-22T11:15:33.294Z,67.02
2017-07-22T11:20:30.115Z,63.07
2017-07-22T11:25:28.008Z,61.18
2017-07-22T11:30:24.339Z,61.90
2017-07-22T11:35:21.524Z,65.37
2017-07-22T11:40:15.658Z,64.62
2017-07-22T11:45:14.256Z,61.90
2017-07-22T11:50:12.068Z,59.57
2017-07-22T11:55:08.530Z,57.26
2017-07-22T12:00:03.106Z,57.95
2017-07-22T12:04:58.075Z,58.59
2017-07-22T12:09:55.044Z,60.80
2017-07-22T12:14:54.652Z,60.05
2017-07-22T12:19:51.668Z,56.51
2017-07-22T12:24:49.322Z,52.43
2017-07-22T12:29:46.059Z,50.09
2017-07-22T12:34:42.018Z,51.19
2017-07-22T12:39:39.535Z,49.85
2017-07-22T12:44:35.434Z,52.45
2017-07-22T12:49:31.040Z,51.58
2017-07-22T12:54:26.080Z,52.09
2017-07-22T12:59:22.889Z,50.04
2017-07-22T13:04:18.344Z,50.34
2017-07-22T13:09:13.447Z,50.97
2017-07-22T13:14:10.929Z,49.24
2017-07-22T13:19:06.989Z,50.80
2017-07-22T13:24:04.960Z,51.31
2017-07-22T13:29:00.147Z,52.21
2017-07-22T13:33:56.136Z,51.48
2017-07-22T13:38:52.207Z,51.04
2017-07-22T13:43:50.324Z,50.53
2017-07-22T13:48:44.393Z,52.19
2017-07-22T13:53:40.532Z,53.33
2017-07-22T13:58:37.191Z,52.82
2017-07-22T14:03:34.262Z,55.32
2017-07-22T14:08:29.899Z,57.17
2017-07-22T14:13:26.043Z,57.59
2017-07-22T14:18:21.904Z,54.54
2017-07-22T14:23:16.913Z,55.98
2017-07-22T14:28:12.186Z,54.71
2017-07-22T14:33:07.524Z,54.32
2017-07-22T14:38:04.149Z,56.26
2017-07-22T14:43:00.614Z,55.75
2017-07-22T14:47:57.087Z,56.04
2017-07-22T14:52:53.588Z,57.98
2017-07-22T14:57:48.795Z,56.11
2017-07-22T15:02:44.947Z,56.21
2017-07-22T15:07:41.690Z,55.33
2017-07-22T15:12:37.147Z,55.14
2017-07-22T15:17:33.229Z,55.04
2017-07-22T15:22:28.969Z,56.89
2017-07-22T15:27:26.118Z,57.28
2017-07-22T15:32:24.238Z,55.92
2017-07-22T15:37:20.013Z,56.40
2017-07-22T15:42:17.275Z,57.96
2017-07-22T15:47:13.908Z,57.64
2017-07-22T15:52:15.238Z,59.51
2017-07-22T15:57:11.498Z,57.08
2017-07-22T16:02:08.264Z,57.28
2017-07-22T16:07:05.782Z,57.57
2017-07-22T16:12:01.572Z,57.96
2017-07-22T16:16:58.613Z,56.98
2017-07-22T16:21:54.629Z,58.64
2017-07-22T16:26:52.023Z,57.96
2017-07-22T16:31:48.630Z,58.73
2017-07-22T16:36:45.374Z,61.42
2017-07-22T16:41:40.847Z,63.56
2017-07-22T16:46:36.570Z,66.24
2017-07-22T16:51:32.964Z,70.96
2017-07-22T16:56:29.723Z,80.42
2017-07-22T17:01:24.865Z,81.15
2017-07-22T17:06:20.686Z,81.21
2017-07-22T17:11:16.610Z,82.47
2017-07-22T17:16:12.435Z,83.40
2017-07-22T17:21:10.382Z,83.88
2017-07-22T17:26:06.041Z,83.98
2017-07-22T17:31:02.169Z,83.78
2017-07-22T17:35:57.778Z,83.11
2017-07-22T17:40:54.198Z,83.88
2017-07-22T17:50:54.118Z,84.71
2017-07-22T17:55:50.211Z,85.39
2017-07-22T18:00:47.224Z,85.83
2017-07-22T18:05:44.831Z,86.60
2017-07-22T18:10:41.511Z,86.69
2017-07-22T18:15:38.253Z,87.85
2017-07-22T18:20:33.890Z,86.79
2017-07-22T18:25:30.996Z,86.99
2017-07-22T18:30:28.143Z,86.79
2017-07-22T18:35:24.198Z,89.11
2017-07-22T18:40:21.116Z,85.73
2017-07-22T18:45:17.101Z,87.66
2017-07-22T18:50:15.460Z,88.73
2017-07-22T18:55:11.865Z,88.43
2017-07-22T19:00:07.397Z,87.57
2017-07-22T19:05:03.350Z,87.37
2017-07-22T19:10:00.703Z,87.57
2017-07-22T19:14:56.600Z,88.05
2017-07-22T19:19:52.587Z,86.60
2017-07-22T19:24:48.417Z,86.41
2017-07-22T19:29:44.509Z,87.18
2017-07-22T19:34:40.424Z,88.05
2017-07-22T19:39:37.184Z,88.05
2017-07-22T19:44:34.467Z,88.59
2017-07-22T19:49:30.249Z,88.78
2017-07-22T19:54:25.939Z,89.17
2017-07-22T19:59:22.381Z,91.83
2017-07-22T20:04:18.076Z,91.92
2017-07-22T20:09:13.849Z,92.50
2017-07-22T20:14:09.735Z,92.60
2017-07-22T20:19:06.495Z,94.38
2017-07-22T20:24:02.368Z,94.10
2017-07-22T20:28:59.091Z,95.74
2017-07-22T20:33:54.520Z,96.89
2017-07-22T20:38:51.610Z,97.91
2017-07-22T20:43:47.163Z,99.35
2017-07-22T20:48:44.083Z,99.55
2017-07-22T20:53:40.829Z,99.99
2017-07-22T20:58:37.311Z,99.99
2017-07-22T21:03:34.127Z,98.63
2017-07-22T21:08:29.677Z,98.63
2017-07-22T21:13:25.782Z,99.50
2017-07-22T21:18:21.931Z,99.21
2017-07-22T21:23:18.879Z,99.99
2017-07-22T21:28:15.396Z,99.99
2017-07-22T21:33:11.901Z,99.99
2017-07-22T21:38:07.657Z,99.99
2017-07-22T21:43:03.637Z,99.99
2017-07-22T21:47:59.894Z,99.99
2017-07-22T21:52:55.731Z,99.99
2017-07-22T21:57:51.727Z,99.99
2017-07-22T22:02:48.469Z,99.99
2017-07-22T22:07:44.089Z,99.99
2017-07-22T22:12:40.198Z,99.99
2017-07-22T22:17:37.094Z,99.99
2017-07-22T22:22:32.522Z,99.99
2017-07-22T22:27:28.470Z,99.99
2017-07-22T22:32:25.763Z,99.99
2017-07-22T22:37:21.345Z,99.99
2017-07-22T22:42:17.182Z,99.99
2017-07-22T22:47:13.921Z,99.99
2017-07-22T22:52:11.553Z,99.99
2017-07-22T22:57:07.022Z,99.99
2017-07-22T23:02:02.852Z,99.99
2017-07-22T23:06:59.369Z,99.99
2017-07-22T23:11:56.768Z,99.99
2017-07-22T23:16:52.401Z,99.99
2017-07-22T23:21:48.804Z,99.99
2017-07-22T23:26:45.586Z,99.99
2017-07-22T23:31:41.141Z,99.99
2017-07-22T23:36:38.061Z,99.99
2017-07-22T23:41:33.816Z,99.99
2017-07-22T23:46:29.869Z,99.99
2017-07-22T23:51:26.637Z,99.99
2017-07-22T23:56:22.819Z,99.99
